Terminal Aerodrome Forecast
Issued by NWS

Home | Current Version | Previous Version | Text Only | Print | Product List | Glossary On
Versions: 1 2 3 4 5 6 7 8 9 10 11 12
000
FTUS43 KOAX 232300
TAFBFF
TAF
KBFF 232329Z 2400/2424 29028G40KT P6SM BKN090
     FM240100 30018KT P6SM SCT090
     FM240300 29010KT P6SM SCT090
     FM241400 30017G28KT P6SM SKC=

USA.gov is the U.S. government's official web portal to all federal, state and local government web resources and services.